Time;durP1;ratioP1;P1;durP2;ratioP2;P2;SDS_P1;SDS_P2;PMS_P1;PMS_P2;Temp;Humidity;BMP_temperature;BMP_pressure;BME280_temperature;BME280_humidity;BME280_pressure;Samples;Min_cycle;Max_cycle;Signal;HPM_P1;HPM_P2
2023/07/08 00:01:12;;;;;;;;;;;18.80;87.40;;;;;;5059524;28;19975;-63
2023/07/08 00:03:44;;;;;;;;;;;18.60;88.30;;;;;;5057179;28;19928;-63
2023/07/08 00:06:23;;;;;;;;;;;18.50;89.30;;;;;;5055969;28;19929;-63
2023/07/08 00:08:55;;;;;;;;;;;18.50;89.90;;;;;;5056788;28;20412;-63
2023/07/08 00:11:28;;;;;;;;;;;18.40;90.10;;;;;;5055476;28;19928;-63
2023/07/08 00:13:54;;;;;;;;;;;18.30;90.70;;;;;;5056218;28;20316;-63
2023/07/08 00:16:23;;;;;;;;;;;18.30;91.10;;;;;;5054969;28;20358;-63
2023/07/08 00:18:55;;;;;;;;;;;18.20;91.50;;;;;;5070625;28;20011;-64
2023/07/08 00:21:27;;;;;;;;;;;18.20;92.20;;;;;;5055169;28;20459;-63
2023/07/08 00:23:58;;;;;;;;;;;18.20;92.20;;;;;;5055245;28;19925;-63
2023/07/08 00:26:30;;;;;;;;;;;18.30;92.30;;;;;;5054904;28;19924;-63
2023/07/08 00:29:02;;;;;;;;;;;18.30;92.20;;;;;;5054560;28;19932;-63
2023/07/08 00:31:34;;;;;;;;;;;18.30;92.10;;;;;;5053755;28;19924;-63
2023/07/08 00:34:05;;;;;;;;;;;18.30;92.10;;;;;;5052912;28;19924;-63
2023/07/08 00:36:37;;;;;;;;;;;18.40;92.30;;;;;;5053774;28;20031;-63
2023/07/08 00:39:13;;;;;;;;;;;18.40;92.40;;;;;;5056458;28;20486;-63
2023/07/08 00:41:45;;;;;;;;;;;18.30;92.70;;;;;;5042538;28;20319;-63
2023/07/08 00:44:17;;;;;;;;;;;18.30;93.30;;;;;;5059227;28;19934;-63
2023/07/08 00:47:03;;;;;;;;;;;18.10;93.70;;;;;;5046197;28;19955;-63
2023/07/08 00:49:39;;;;;;;;;;;18.10;94.40;;;;;;5058887;28;19929;-63
2023/07/08 00:52:18;;;;;;;;;;;18.00;94.90;;;;;;5061714;28;19935;-63
2023/07/08 00:54:46;;;;;;;;;;;18.00;95.20;;;;;;5058825;28;20021;-63
2023/07/08 00:57:18;;;;;;;;;;;17.90;95.60;;;;;;5063028;28;19932;-63
2023/07/08 00:59:59;;;;;;;;;;;18.00;95.60;;;;;;5058435;28;19930;-63
2023/07/08 01:02:34;;;;;;;;;;;17.90;96.00;;;;;;5046422;28;19935;-63
2023/07/08 01:05:10;;;;;;;;;;;17.90;96.30;;;;;;5059499;28;19963;-63
2023/07/08 01:07:43;;;;;;;;;;;17.80;96.90;;;;;;5062290;28;19931;-63
2023/07/08 01:10:16;;;;;;;;;;;17.70;97.30;;;;;;5053937;28;19925;-63
2023/07/08 01:12:48;;;;;;;;;;;17.60;97.70;;;;;;5061438;28;19924;-63
2023/07/08 01:15:23;;;;;;;;;;;17.60;97.90;;;;;;5062455;28;19929;-63
2023/07/08 01:17:54;;;;;;;;;;;17.60;98.20;;;;;;5057503;28;19925;-63
2023/07/08 01:20:27;;;;;;;;;;;17.60;98.60;;;;;;5058377;28;19928;-64
2023/07/08 01:22:54;;;;;;;;;;;17.60;98.80;;;;;;5058003;28;19964;-63
2023/07/08 01:25:27;;;;;;;;;;;17.50;99.20;;;;;;5058980;28;19928;-63
2023/07/08 01:27:59;;;;;;;;;;;17.50;99.70;;;;;;5071824;28;19931;-63
2023/07/08 01:30:30;;;;;;;;;;;17.50;99.90;;;;;;5056769;28;19956;-63
2023/07/08 01:33:05;;;;;;;;;;;17.40;99.90;;;;;;5055362;28;20008;-63
2023/07/08 01:35:37;;;;;;;;;;;17.40;99.90;;;;;;5057889;28;19924;-63
2023/07/08 01:38:09;;;;;;;;;;;17.40;99.90;;;;;;5056435;28;19929;-63
2023/07/08 01:40:48;;;;;;;;;;;17.40;99.90;;;;;;5063276;28;19931;-63
2023/07/08 01:43:20;;;;;;;;;;;17.30;99.90;;;;;;5061296;28;20278;-63
2023/07/08 01:45:53;;;;;;;;;;;17.40;99.90;;;;;;5062511;28;19962;-63
2023/07/08 01:48:26;;;;;;;;;;;17.30;99.90;;;;;;5057490;28;20376;-63
2023/07/08 01:51:00;;;;;;;;;;;17.20;99.90;;;;;;5061876;28;19932;-63
2023/07/08 01:53:32;;;;;;;;;;;17.20;99.90;;;;;;5061079;28;19928;-63
2023/07/08 01:56:04;;;;;;;;;;;17.10;99.90;;;;;;5060274;28;19963;-63
2023/07/08 01:58:36;;;;;;;;;;;17.10;99.90;;;;;;5061733;28;19934;-63
2023/07/08 02:01:08;;;;;;;;;;;17.10;99.90;;;;;;5079665;28;20354;-63
2023/07/08 02:03:40;;;;;;;;;;;17.10;99.90;;;;;;5064625;28;19925;-63
2023/07/08 02:06:12;;;;;;;;;;;17.10;99.90;;;;;;5055573;28;20386;-63
2023/07/08 02:08:44;;;;;;;;;;;17.10;99.90;;;;;;5047012;28;19936;-63
2023/07/08 02:11:15;;;;;;;;;;;17.00;99.90;;;;;;5068358;28;19934;-63
2023/07/08 02:13:47;;;;;;;;;;;17.00;99.90;;;;;;5059449;28;19925;-64
2023/07/08 02:16:19;;;;;;;;;;;17.00;99.90;;;;;;5054467;28;19935;-63
2023/07/08 02:18:51;;;;;;;;;;;16.90;99.90;;;;;;5058940;28;19928;-63
2023/07/08 02:21:18;;;;;;;;;;;16.90;99.90;;;;;;5070056;28;19935;-63
2023/07/08 02:23:51;;;;;;;;;;;16.90;99.90;;;;;;5058856;28;20385;-63
2023/07/08 02:26:23;;;;;;;;;;;16.90;99.90;;;;;;5064708;28;19956;-63
2023/07/08 02:28:55;;;;;;;;;;;16.90;99.90;;;;;;5060394;28;20343;-63
2023/07/08 02:31:27;;;;;;;;;;;16.90;99.90;;;;;;5051949;28;20006;-63
2023/07/08 02:33:58;;;;;;;;;;;16.90;99.90;;;;;;5060867;28;19935;-63
2023/07/08 02:36:25;;;;;;;;;;;16.80;99.90;;;;;;5059667;28;19935;-64
2023/07/08 02:38:57;;;;;;;;;;;16.80;99.90;;;;;;5059315;28;19929;-63
2023/07/08 02:41:29;;;;;;;;;;;16.80;99.90;;;;;;5065939;28;19972;-63
2023/07/08 02:43:56;;;;;;;;;;;16.80;99.90;;;;;;5061741;28;19925;-63
2023/07/08 02:46:27;;;;;;;;;;;16.70;99.90;;;;;;5065687;28;20766;-63
2023/07/08 02:48:59;;;;;;;;;;;16.80;99.90;;;;;;5063742;28;19924;-63
2023/07/08 02:51:31;;;;;;;;;;;16.80;99.90;;;;;;5056684;28;20015;-63
2023/07/08 02:54:03;;;;;;;;;;;16.80;99.90;;;;;;5060042;28;19990;-63
2023/07/08 02:56:35;;;;;;;;;;;16.80;99.90;;;;;;5057367;28;19925;-64
2023/07/08 02:59:06;;;;;;;;;;;16.90;99.90;;;;;;5072209;28;19928;-63
2023/07/08 03:01:41;;;;;;;;;;;16.90;99.90;;;;;;5057348;28;19932;-63
2023/07/08 03:04:13;;;;;;;;;;;16.90;99.90;;;;;;5043524;28;19994;-63
2023/07/08 03:06:45;;;;;;;;;;;16.90;99.90;;;;;;5056157;28;19925;-63
2023/07/08 03:09:17;;;;;;;;;;;16.90;99.90;;;;;;5051053;28;19925;-63
2023/07/08 03:11:49;;;;;;;;;;;16.90;99.90;;;;;;5067708;28;19931;-63
2023/07/08 03:14:21;;;;;;;;;;;16.90;99.90;;;;;;5074162;28;19925;-63
2023/07/08 03:16:53;;;;;;;;;;;16.90;99.90;;;;;;5056626;28;20006;-63
2023/07/08 03:19:25;;;;;;;;;;;16.90;99.90;;;;;;5058020;28;19928;-63
2023/07/08 03:21:58;;;;;;;;;;;16.90;99.90;;;;;;5062102;28;19935;-63
2023/07/08 03:24:30;;;;;;;;;;;16.90;99.90;;;;;;5060621;28;19994;-63
2023/07/08 03:27:05;;;;;;;;;;;16.90;99.90;;;;;;5069036;28;20415;-63
2023/07/08 03:29:37;;;;;;;;;;;16.90;99.90;;;;;;5059537;28;19925;-63
2023/07/08 03:32:12;;;;;;;;;;;16.90;99.90;;;;;;5059785;28;19931;-64
2023/07/08 03:34:44;;;;;;;;;;;16.80;99.90;;;;;;5058076;28;20447;-63
2023/07/08 03:37:15;;;;;;;;;;;16.80;99.90;;;;;;5060084;28;20121;-64
2023/07/08 03:39:49;;;;;;;;;;;16.80;99.90;;;;;;5062906;28;19935;-64
2023/07/08 03:42:20;;;;;;;;;;;16.80;99.90;;;;;;5051026;28;19924;-64
2023/07/08 03:44:52;;;;;;;;;;;16.70;99.90;;;;;;5064822;28;20304;-63
2023/07/08 03:47:25;;;;;;;;;;;16.90;99.90;;;;;;5062905;28;19939;-64
2023/07/08 03:49:56;;;;;;;;;;;17.00;99.90;;;;;;5064007;28;19925;-64
2023/07/08 03:52:23;;;;;;;;;;;17.10;99.90;;;;;;5066051;28;19928;-64
2023/07/08 03:54:50;;;;;;;;;;;17.10;99.90;;;;;;5066236;28;19963;-64
2023/07/08 03:57:22;;;;;;;;;;;17.10;99.90;;;;;;5065931;28;19928;-64
2023/07/08 03:59:49;;;;;;;;;;;17.20;99.90;;;;;;5064720;28;19935;-64
2023/07/08 04:02:16;;;;;;;;;;;17.20;99.90;;;;;;5060610;28;19959;-64
2023/07/08 04:04:48;;;;;;;;;;;17.20;99.90;;;;;;5064621;28;20034;-64
2023/07/08 04:07:20;;;;;;;;;;;17.20;99.90;;;;;;5064384;28;19936;-64
2023/07/08 04:09:49;;;;;;;;;;;17.20;99.90;;;;;;5059580;28;20015;-64
2023/07/08 04:12:16;;;;;;;;;;;17.20;99.90;;;;;;5065411;28;19964;-64
2023/07/08 04:14:48;;;;;;;;;;;17.20;99.90;;;;;;5065849;28;20379;-64
2023/07/08 04:17:23;;;;;;;;;;;17.20;99.90;;;;;;5051139;28;19936;-64
2023/07/08 04:19:56;;;;;;;;;;;17.20;99.90;;;;;;5063200;28;19964;-64
2023/07/08 04:22:28;;;;;;;;;;;17.10;99.90;;;;;;5064791;28;19960;-64
2023/07/08 04:24:55;;;;;;;;;;;17.10;99.90;;;;;;5063159;28;19928;-64
2023/07/08 04:27:22;;;;;;;;;;;17.00;99.90;;;;;;5056287;28;19925;-64
2023/07/08 04:29:53;;;;;;;;;;;16.90;99.90;;;;;;5062462;28;19925;-64
2023/07/08 04:32:24;;;;;;;;;;;16.90;99.90;;;;;;5067761;28;20019;-64
2023/07/08 04:34:56;;;;;;;;;;;16.90;99.90;;;;;;5064831;28;19931;-64
2023/07/08 04:37:28;;;;;;;;;;;16.90;99.90;;;;;;5057936;28;19924;-64
2023/07/08 04:40:00;;;;;;;;;;;16.90;99.90;;;;;;5063619;28;19933;-64
2023/07/08 04:42:32;;;;;;;;;;;16.80;99.90;;;;;;5042777;28;19932;-64
2023/07/08 04:45:05;;;;;;;;;;;16.80;99.90;;;;;;5061265;28;19990;-64
2023/07/08 04:47:37;;;;;;;;;;;16.90;99.90;;;;;;5060946;28;20013;-64
2023/07/08 04:50:10;;;;;;;;;;;16.90;99.90;;;;;;5062725;28;19924;-64
2023/07/08 04:52:36;;;;;;;;;;;17.00;99.90;;;;;;5059345;28;20428;-64
2023/07/08 04:55:09;;;;;;;;;;;17.00;99.90;;;;;;5064838;28;19932;-64
2023/07/08 04:57:41;;;;;;;;;;;17.00;99.90;;;;;;5067624;28;19952;-64
2023/07/08 05:00:15;;;;;;;;;;;17.00;99.90;;;;;;5066001;28;20319;-64
2023/07/08 05:02:42;;;;;;;;;;;16.90;99.90;;;;;;5064327;28;20349;-64
2023/07/08 05:05:14;;;;;;;;;;;16.80;99.90;;;;;;5067587;28;19928;-64
2023/07/08 05:07:46;;;;;;;;;;;16.90;99.90;;;;;;5067539;28;19928;-64
2023/07/08 05:10:18;;;;;;;;;;;16.90;99.90;;;;;;5066718;28;20642;-64
2023/07/08 05:12:49;;;;;;;;;;;17.00;99.90;;;;;;5081139;28;19928;-64
2023/07/08 05:15:21;;;;;;;;;;;17.10;99.90;;;;;;5067942;28;20312;-64
2023/07/08 05:17:53;;;;;;;;;;;17.20;99.90;;;;;;5049790;28;19932;-64
2023/07/08 05:20:25;;;;;;;;;;;17.30;99.90;;;;;;5065673;28;19933;-64
2023/07/08 05:22:56;;;;;;;;;;;17.20;99.90;;;;;;5067103;28;20335;-64
2023/07/08 05:25:31;;;;;;;;;;;17.20;99.90;;;;;;5065989;28;19929;-64
2023/07/08 05:28:02;;;;;;;;;;;17.30;99.90;;;;;;5064661;28;20388;-64
2023/07/08 05:30:34;;;;;;;;;;;17.30;99.90;;;;;;5064798;28;19950;-64
2023/07/08 05:33:06;;;;;;;;;;;17.40;99.90;;;;;;5064001;28;19994;-64
2023/07/08 05:35:38;;;;;;;;;;;17.60;99.90;;;;;;5059438;28;19947;-64
2023/07/08 05:38:10;;;;;;;;;;;17.70;99.90;;;;;;5062764;28;19934;-64
2023/07/08 05:40:42;;;;;;;;;;;17.80;99.90;;;;;;5061479;28;19928;-63
2023/07/08 05:43:13;;;;;;;;;;;17.70;99.90;;;;;;5061903;28;19924;-63
2023/07/08 05:45:45;;;;;;;;;;;17.60;99.90;;;;;;5065947;28;20029;-63
2023/07/08 05:48:17;;;;;;;;;;;17.60;99.90;;;;;;5049228;28;19932;-63
2023/07/08 05:50:45;;;;;;;;;;;17.60;99.90;;;;;;5065316;28;19935;-64
2023/07/08 05:53:18;;;;;;;;;;;17.60;99.90;;;;;;5066600;28;20453;-64
2023/07/08 05:55:50;;;;;;;;;;;17.80;99.90;;;;;;5068677;28;20012;-64
2023/07/08 05:58:22;;;;;;;;;;;17.90;99.90;;;;;;5064073;28;19924;-64
2023/07/08 06:00:54;;;;;;;;;;;18.00;99.90;;;;;;5068284;28;20483;-64
2023/07/08 06:03:27;;;;;;;;;;;18.20;99.90;;;;;;5062983;28;20297;-65
2023/07/08 06:05:58;;;;;;;;;;;18.30;99.90;;;;;;5068268;28;19947;-66
2023/07/08 06:08:30;;;;;;;;;;;18.50;99.90;;;;;;5065688;28;20439;-64
2023/07/08 06:11:02;;;;;;;;;;;18.60;99.90;;;;;;5064155;28;19935;-64
2023/07/08 06:13:34;;;;;;;;;;;18.70;99.90;;;;;;5064909;28;20457;-64
2023/07/08 06:16:01;;;;;;;;;;;18.80;99.90;;;;;;5066181;28;19924;-66
2023/07/08 06:18:32;;;;;;;;;;;18.80;99.90;;;;;;5058342;28;19925;-64
2023/07/08 06:21:05;;;;;;;;;;;18.90;99.90;;;;;;5062327;28;19933;-64
2023/07/08 06:23:36;;;;;;;;;;;18.80;99.90;;;;;;5065568;28;19924;-64
2023/07/08 06:26:08;;;;;;;;;;;18.60;99.90;;;;;;5063838;28;19928;-64
2023/07/08 06:28:40;;;;;;;;;;;18.70;99.90;;;;;;5060899;28;20386;-64
2023/07/08 06:31:11;;;;;;;;;;;18.80;99.90;;;;;;5060175;28;19940;-64
2023/07/08 06:33:43;;;;;;;;;;;18.70;99.90;;;;;;5065062;28;19929;-64
2023/07/08 06:36:15;;;;;;;;;;;18.60;99.90;;;;;;5063967;28;19924;-64
2023/07/08 06:38:46;;;;;;;;;;;18.70;99.90;;;;;;5063414;28;19951;-64
2023/07/08 06:41:18;;;;;;;;;;;18.70;99.90;;;;;;5068257;28;20438;-64
2023/07/08 06:43:50;;;;;;;;;;;18.80;99.90;;;;;;5067447;28;19939;-64
2023/07/08 06:46:25;;;;;;;;;;;19.00;99.90;;;;;;5066872;28;19939;-64
2023/07/08 06:48:57;;;;;;;;;;;19.10;99.90;;;;;;5061559;28;19925;-64
2023/07/08 06:51:29;;;;;;;;;;;19.10;99.90;;;;;;5059847;28;19933;-64
2023/07/08 06:53:56;;;;;;;;;;;19.20;99.90;;;;;;5064925;28;20471;-64
2023/07/08 06:56:28;;;;;;;;;;;19.30;99.90;;;;;;5062741;28;20588;-65
2023/07/08 06:58:59;;;;;;;;;;;19.40;99.90;;;;;;5059109;28;19956;-64
2023/07/08 07:01:31;;;;;;;;;;;19.50;99.90;;;;;;5066756;28;19928;-64
2023/07/08 07:04:03;;;;;;;;;;;19.60;99.90;;;;;;5060210;28;19949;-64
2023/07/08 07:06:34;;;;;;;;;;;19.70;99.90;;;;;;5063492;28;20019;-64
2023/07/08 07:09:06;;;;;;;;;;;19.90;99.90;;;;;;5064078;28;19936;-64
2023/07/08 07:11:38;;;;;;;;;;;20.00;99.90;;;;;;5063198;28;20015;-64
2023/07/08 07:14:09;;;;;;;;;;;20.10;99.90;;;;;;5059991;28;19924;-64
2023/07/08 07:16:36;;;;;;;;;;;20.20;99.90;;;;;;5066806;28;20384;-64
2023/07/08 07:19:08;;;;;;;;;;;20.30;99.90;;;;;;5061174;28;19928;-64
2023/07/08 07:21:40;;;;;;;;;;;20.30;99.90;;;;;;5059885;28;20023;-64
2023/07/08 07:24:12;;;;;;;;;;;20.40;99.90;;;;;;5066948;28;19928;-64
2023/07/08 07:26:38;;;;;;;;;;;20.50;99.90;;;;;;5062915;28;19924;-65
2023/07/08 07:29:05;;;;;;;;;;;20.50;99.90;;;;;;5066532;28;19928;-65
2023/07/08 07:31:39;;;;;;;;;;;20.50;99.90;;;;;;5063223;28;19932;-63
2023/07/08 07:34:11;;;;;;;;;;;20.50;99.90;;;;;;5062900;28;19946;-66
2023/07/08 07:36:43;;;;;;;;;;;20.50;99.90;;;;;;5059177;28;19936;-66
2023/07/08 07:39:15;;;;;;;;;;;20.60;99.90;;;;;;5063194;28;19967;-64
2023/07/08 07:41:47;;;;;;;;;;;20.60;99.90;;;;;;5062890;28;20022;-63
2023/07/08 07:44:19;;;;;;;;;;;20.70;99.90;;;;;;5065256;28;19931;-63
2023/07/08 07:46:52;;;;;;;;;;;20.70;99.90;;;;;;5062357;28;19963;-63
2023/07/08 07:49:24;;;;;;;;;;;20.70;99.90;;;;;;5063092;28;19978;-63
2023/07/08 07:51:51;;;;;;;;;;;20.70;99.90;;;;;;5064418;28;19928;-63
2023/07/08 07:54:23;;;;;;;;;;;20.80;99.90;;;;;;5065282;28;19947;-64
2023/07/08 07:56:55;;;;;;;;;;;21.00;99.90;;;;;;5063886;28;20522;-63
2023/07/08 07:59:27;;;;;;;;;;;21.10;99.90;;;;;;5062393;28;20023;-63
2023/07/08 08:01:59;;;;;;;;;;;21.20;99.90;;;;;;5063472;28;19971;-63
2023/07/08 08:04:30;;;;;;;;;;;21.30;99.90;;;;;;5064696;28;19932;-65
2023/07/08 08:07:02;;;;;;;;;;;21.40;99.90;;;;;;5056741;28;19982;-64
2023/07/08 08:09:34;;;;;;;;;;;21.50;99.90;;;;;;5062516;28;20389;-63
2023/07/08 08:12:07;;;;;;;;;;;21.60;99.90;;;;;;5060184;28;19928;-66
2023/07/08 08:14:39;;;;;;;;;;;21.70;99.90;;;;;;5058998;28;19946;-63
2023/07/08 08:17:10;;;;;;;;;;;21.70;99.90;;;;;;5060656;28;21391;-64
2023/07/08 08:19:42;;;;;;;;;;;21.70;99.90;;;;;;5064911;28;19928;-64
2023/07/08 08:22:15;;;;;;;;;;;21.70;99.90;;;;;;5064358;28;19931;-63
2023/07/08 08:24:47;;;;;;;;;;;21.70;99.90;;;;;;5048497;28;19928;-64
2023/07/08 08:27:18;;;;;;;;;;;21.80;99.90;;;;;;5064025;28;19924;-63
2023/07/08 08:29:50;;;;;;;;;;;21.90;99.90;;;;;;5065129;28;20387;-63
2023/07/08 08:32:22;;;;;;;;;;;21.90;99.90;;;;;;5062278;28;19928;-63
2023/07/08 08:34:53;;;;;;;;;;;22.00;99.90;;;;;;5057353;28;20385;-64
2023/07/08 08:37:25;;;;;;;;;;;22.00;99.90;;;;;;5057159;28;19932;-66
2023/07/08 08:39:57;;;;;;;;;;;22.00;99.90;;;;;;5067129;28;19932;-63
2023/07/08 08:42:38;;;;;;;;;;;22.10;99.90;;;;;;5060398;28;20487;-63
2023/07/08 08:45:13;;;;;;;;;;;22.10;99.90;;;;;;5059133;28;19931;-64
2023/07/08 08:47:47;;;;;;;;;;;22.10;99.90;;;;;;5059210;28;20309;-63
2023/07/08 08:50:39;;;;;;;;;;;22.20;99.90;;;;;;5063643;28;20400;-64
2023/07/08 08:53:12;;;;;;;;;;;22.30;99.90;;;;;;5059928;28;19928;-64
2023/07/08 08:55:47;;;;;;;;;;;22.30;99.90;;;;;;5061192;28;19924;-64
2023/07/08 08:58:27;;;;;;;;;;;22.40;99.90;;;;;;5060418;28;19929;-63
2023/07/08 09:00:56;;;;;;;;;;;22.30;99.90;;;;;;5058762;28;21447;-64
2023/07/08 09:03:41;;;;;;;;;;;22.40;99.90;;;;;;5059552;28;20014;-63
2023/07/08 09:06:18;;;;;;;;;;;22.50;99.90;;;;;;5061485;28;19933;-63
2023/07/08 09:08:51;;;;;;;;;;;22.60;99.90;;;;;;5061926;28;19932;-64
2023/07/08 09:11:30;;;;;;;;;;;22.80;99.90;;;;;;5060306;28;19929;-63
2023/07/08 09:14:02;;;;;;;;;;;22.80;99.90;;;;;;5061488;28;20024;-63
2023/07/08 09:16:49;;;;;;;;;;;22.90;99.90;;;;;;5064727;28;19925;-63
2023/07/08 09:19:24;;;;;;;;;;;23.00;99.90;;;;;;5067369;28;19951;-63
2023/07/08 09:22:16;;;;;;;;;;;23.10;99.90;;;;;;5063073;28;19924;-65
2023/07/08 09:24:54;;;;;;;;;;;23.20;99.90;;;;;;5064107;28;19928;-64
2023/07/08 09:27:26;;;;;;;;;;;23.30;99.90;;;;;;5067422;28;20474;-64
2023/07/08 09:29:58;;;;;;;;;;;23.40;99.90;;;;;;5064097;28;19925;-64
2023/07/08 09:32:33;;;;;;;;;;;23.50;99.90;;;;;;5066411;28;19924;-64
2023/07/08 09:35:06;;;;;;;;;;;23.50;99.90;;;;;;5063770;28;20051;-64
2023/07/08 09:37:34;;;;;;;;;;;23.50;99.90;;;;;;5080840;28;20338;-64
2023/07/08 09:40:23;;;;;;;;;;;23.60;99.90;;;;;;5066503;28;19924;-64
2023/07/08 09:42:58;;;;;;;;;;;23.70;99.90;;;;;;5067935;28;20005;-64
2023/07/08 09:45:40;;;;;;;;;;;23.70;99.90;;;;;;5067733;28;20383;-64
2023/07/08 09:48:16;;;;;;;;;;;23.80;99.90;;;;;;5065394;28;20522;-64
2023/07/08 09:50:43;;;;;;;;;;;24.00;99.90;;;;;;5067288;28;19998;-64
2023/07/08 09:53:15;;;;;;;;;;;24.20;99.90;;;;;;5064812;28;19924;-65
2023/07/08 09:55:46;;;;;;;;;;;24.40;99.90;;;;;;5063181;28;19932;-65
2023/07/08 09:58:21;;;;;;;;;;;24.60;99.90;;;;;;5065596;28;19928;-65
2023/07/08 10:00:54;;;;;;;;;;;24.80;99.90;;;;;;5066567;28;19933;-65
2023/07/08 10:03:28;;;;;;;;;;;25.10;99.90;;;;;;5070291;28;19926;-63
2023/07/08 10:06:05;;;;;;;;;;;25.30;99.90;;;;;;5068528;28;19933;-64
2023/07/08 10:08:41;;;;;;;;;;;25.40;99.90;;;;;;5065833;28;20019;-64
2023/07/08 10:11:21;;;;;;;;;;;25.40;99.90;;;;;;5068911;28;19928;-64
2023/07/08 10:13:54;;;;;;;;;;;25.50;99.90;;;;;;5068438;28;19931;-64
2023/07/08 10:16:27;;;;;;;;;;;25.70;99.90;;;;;;5067239;28;19967;-64
2023/07/08 10:18:59;;;;;;;;;;;25.80;99.90;;;;;;5064882;28;19929;-65
2023/07/08 10:21:36;;;;;;;;;;;25.90;99.50;;;;;;5067070;28;19934;-64
2023/07/08 10:24:30;;;;;;;;;;;26.00;99.40;;;;;;5067748;28;19931;-64
2023/07/08 10:27:02;;;;;;;;;;;26.10;99.50;;;;;;5066502;28;20305;-63
2023/07/08 10:29:34;;;;;;;;;;;26.10;99.70;;;;;;5065154;28;19933;-65
2023/07/08 10:32:18;;;;;;;;;;;26.20;99.90;;;;;;5066029;28;19932;-66
2023/07/08 10:35:13;;;;;;;;;;;26.20;99.90;;;;;;5067592;28;19948;-64
2023/07/08 10:38:04;;;;;;;;;;;26.30;99.10;;;;;;5077799;28;20293;-65
2023/07/08 10:40:38;;;;;;;;;;;26.40;99.10;;;;;;5064989;28;20396;-64
2023/07/08 10:43:13;;;;;;;;;;;26.50;97.10;;;;;;5062413;28;20328;-63
2023/07/08 10:45:52;;;;;;;;;;;26.40;96.70;;;;;;5065690;28;19935;-65
2023/07/08 10:48:25;;;;;;;;;;;26.50;96.00;;;;;;5065863;28;19924;-64
2023/07/08 10:51:05;;;;;;;;;;;26.50;95.80;;;;;;5063017;28;19929;-64
2023/07/08 10:53:38;;;;;;;;;;;26.50;94.60;;;;;;5066981;28;20445;-68
2023/07/08 10:56:14;;;;;;;;;;;26.70;94.60;;;;;;5066434;28;19968;-65
2023/07/08 10:59:04;;;;;;;;;;;26.80;93.40;;;;;;5063275;28;20005;-66
2023/07/08 11:01:49;;;;;;;;;;;26.70;94.10;;;;;;5063310;28;19944;-66
2023/07/08 11:04:24;;;;;;;;;;;26.70;94.80;;;;;;5060216;28;19929;-63
2023/07/08 11:06:58;;;;;;;;;;;26.60;95.20;;;;;;5051344;28;19925;-65
2023/07/08 11:09:39;;;;;;;;;;;26.60;95.70;;;;;;5064982;28;19928;-64
2023/07/08 11:12:22;;;;;;;;;;;26.60;95.90;;;;;;5059621;28;19936;-64
2023/07/08 11:15:13;;;;;;;;;;;26.70;96.40;;;;;;5060843;28;19932;-64
2023/07/08 11:17:47;;;;;;;;;;;26.80;96.20;;;;;;5064234;28;19928;-64
2023/07/08 11:20:30;;;;;;;;;;;27.00;96.10;;;;;;5061391;28;19986;-64
2023/07/08 11:23:16;;;;;;;;;;;27.20;94.70;;;;;;5060943;28;19929;-64
2023/07/08 11:25:49;;;;;;;;;;;27.40;93.80;;;;;;5064295;28;19939;-63
2023/07/08 11:28:22;;;;;;;;;;;27.30;93.50;;;;;;5065614;28;20013;-64
2023/07/08 11:30:57;;;;;;;;;;;27.40;93.40;;;;;;5068619;28;19931;-64
2023/07/08 11:33:31;;;;;;;;;;;27.50;92.20;;;;;;5064189;28;20003;-64
2023/07/08 11:36:03;;;;;;;;;;;27.60;91.70;;;;;;5066661;28;20023;-64
2023/07/08 11:38:35;;;;;;;;;;;27.70;91.00;;;;;;5066799;28;19928;-69
2023/07/08 11:41:15;;;;;;;;;;;28.00;91.30;;;;;;5062125;28;19939;-64
2023/07/08 11:43:49;;;;;;;;;;;28.20;91.90;;;;;;5065585;28;20352;-64
2023/07/08 11:46:25;;;;;;;;;;;28.50;91.50;;;;;;5066225;28;19928;-65
2023/07/08 11:48:52;;;;;;;;;;;28.80;91.40;;;;;;5061884;28;20363;-64
2023/07/08 11:51:27;;;;;;;;;;;28.80;90.70;;;;;;5064510;28;19932;-64
2023/07/08 11:54:01;;;;;;;;;;;28.70;90.60;;;;;;5064123;28;19931;-65
2023/07/08 11:56:47;;;;;;;;;;;28.60;90.20;;;;;;5067856;28;19928;-68
2023/07/08 11:59:19;;;;;;;;;;;28.50;90.70;;;;;;5068223;28;19971;-64
2023/07/08 12:01:53;;;;;;;;;;;28.60;91.20;;;;;;5065915;28;19928;-65
2023/07/08 12:04:31;;;;;;;;;;;28.70;90.40;;;;;;5063848;28;20027;-64
2023/07/08 12:07:11;;;;;;;;;;;28.80;90.10;;;;;;5066064;28;19928;-67
2023/07/08 12:09:49;;;;;;;;;;;28.90;89.50;;;;;;5064202;28;20498;-65
2023/07/08 12:12:23;;;;;;;;;;;28.90;87.90;;;;;;5063078;28;19925;-64
2023/07/08 12:14:59;;;;;;;;;;;28.80;85.80;;;;;;5062404;28;20395;-66
2023/07/08 12:17:31;;;;;;;;;;;28.80;87.70;;;;;;5047534;28;20305;-64
2023/07/08 12:20:00;;;;;;;;;;;28.90;84.00;;;;;;5063496;28;20519;-64
2023/07/08 12:22:32;;;;;;;;;;;29.10;84.60;;;;;;5064258;28;19967;-64
2023/07/08 12:25:07;;;;;;;;;;;29.30;83.80;;;;;;5062665;28;19925;-65
2023/07/08 12:27:39;;;;;;;;;;;29.40;78.10;;;;;;5067130;28;19925;-65
2023/07/08 12:30:11;;;;;;;;;;;29.60;78.40;;;;;;5067884;28;19936;-65
2023/07/08 12:32:44;;;;;;;;;;;29.70;77.30;;;;;;5061755;28;19924;-65
2023/07/08 12:35:30;;;;;;;;;;;29.80;75.00;;;;;;5066165;28;19928;-65
2023/07/08 12:38:03;;;;;;;;;;;29.80;73.40;;;;;;5066764;28;19928;-64
2023/07/08 12:40:34;;;;;;;;;;;30.00;76.00;;;;;;5066213;28;19974;-65
2023/07/08 12:43:09;;;;;;;;;;;30.10;75.30;;;;;;5067450;28;20016;-64
2023/07/08 12:45:41;;;;;;;;;;;30.30;75.20;;;;;;5068083;28;19936;-64
2023/07/08 12:48:12;;;;;;;;;;;30.50;75.20;;;;;;5081217;28;19935;-65
2023/07/08 12:50:44;;;;;;;;;;;30.80;72.10;;;;;;5066334;28;19925;-65
2023/07/08 12:53:16;;;;;;;;;;;30.80;70.20;;;;;;5067270;28;20429;-64
2023/07/08 12:55:50;;;;;;;;;;;31.00;70.60;;;;;;5070227;28;19931;-65
2023/07/08 12:58:25;;;;;;;;;;;31.20;68.50;;;;;;5068772;28;19924;-65
2023/07/08 13:00:59;;;;;;;;;;;31.30;66.20;;;;;;5052814;28;19925;-64
2023/07/08 13:03:34;;;;;;;;;;;31.40;67.80;;;;;;5071969;28;19924;-65
2023/07/08 13:06:07;;;;;;;;;;;31.40;66.00;;;;;;5069447;28;20359;-64
2023/07/08 13:08:39;;;;;;;;;;;31.50;66.50;;;;;;5066362;28;19932;-65
2023/07/08 13:11:13;;;;;;;;;;;31.50;66.90;;;;;;5066087;28;19925;-64
2023/07/08 13:13:44;;;;;;;;;;;31.60;65.40;;;;;;5069638;28;19931;-65
2023/07/08 13:16:16;;;;;;;;;;;31.60;65.90;;;;;;5064368;28;20019;-64
2023/07/08 13:18:48;;;;;;;;;;;31.50;65.70;;;;;;5067300;28;19966;-65
2023/07/08 13:21:20;;;;;;;;;;;31.20;63.80;;;;;;5068204;28;19943;-63
2023/07/08 13:23:47;;;;;;;;;;;31.10;65.90;;;;;;5063752;28;19930;-64
2023/07/08 13:26:20;;;;;;;;;;;31.10;64.60;;;;;;5065278;28;19929;-64
2023/07/08 13:28:59;;;;;;;;;;;31.40;65.60;;;;;;5067012;28;19956;-65
2023/07/08 13:31:33;;;;;;;;;;;31.40;65.10;;;;;;5064671;28;19928;-66
2023/07/08 13:34:09;;;;;;;;;;;31.40;63.90;;;;;;5062690;28;19925;-64
2023/07/08 13:36:42;;;;;;;;;;;31.20;64.90;;;;;;5063215;28;19936;-64
2023/07/08 13:39:16;;;;;;;;;;;31.00;64.40;;;;;;5066214;28;20015;-65
2023/07/08 13:41:48;;;;;;;;;;;31.20;67.50;;;;;;5078102;28;19925;-65
2023/07/08 13:44:19;;;;;;;;;;;31.20;64.90;;;;;;5064441;28;19931;-64
2023/07/08 13:46:50;;;;;;;;;;;31.20;66.50;;;;;;5066540;28;19950;-63
2023/07/08 13:49:23;;;;;;;;;;;31.40;65.40;;;;;;5066510;28;19933;-65
2023/07/08 13:52:10;;;;;;;;;;;31.70;65.80;;;;;;5062135;28;19939;-65
2023/07/08 13:54:45;;;;;;;;;;;32.00;65.20;;;;;;5064301;28;20305;-66
2023/07/08 13:57:18;;;;;;;;;;;32.30;63.70;;;;;;5069283;28;19933;-65
2023/07/08 13:59:50;;;;;;;;;;;32.80;63.80;;;;;;5064176;28;19929;-65
2023/07/08 14:02:24;;;;;;;;;;;33.10;61.10;;;;;;5068161;28;19932;-64
2023/07/08 14:04:57;;;;;;;;;;;33.40;63.10;;;;;;5066963;28;19972;-65
2023/07/08 14:07:31;;;;;;;;;;;33.70;60.00;;;;;;5066895;28;19930;-64
2023/07/08 14:09:58;;;;;;;;;;;33.90;60.70;;;;;;5066087;28;19932;-65
2023/07/08 14:12:29;;;;;;;;;;;34.00;59.20;;;;;;5064991;28;19929;-66
2023/07/08 14:15:01;;;;;;;;;;;34.10;59.20;;;;;;5068422;28;19924;-65
2023/07/08 14:17:33;;;;;;;;;;;34.00;59.10;;;;;;5063508;28;19928;-64
2023/07/08 14:20:10;;;;;;;;;;;34.00;58.90;;;;;;5064760;28;19925;-68
2023/07/08 14:22:42;;;;;;;;;;;34.30;58.80;;;;;;5065738;28;19932;-66
2023/07/08 14:25:15;;;;;;;;;;;34.70;57.80;;;;;;5069511;28;19960;-65
2023/07/08 14:27:46;;;;;;;;;;;34.90;56.30;;;;;;5066267;28;20011;-64
2023/07/08 14:30:18;;;;;;;;;;;35.10;56.60;;;;;;5067674;28;19979;-65
2023/07/08 14:32:50;;;;;;;;;;;35.40;55.70;;;;;;5081193;28;19960;-65
2023/07/08 14:35:21;;;;;;;;;;;35.40;55.20;;;;;;5069455;28;19933;-64
2023/07/08 14:37:48;;;;;;;;;;;35.50;55.80;;;;;;5048716;28;20405;-66
2023/07/08 14:40:24;;;;;;;;;;;35.50;54.90;;;;;;5081834;28;19936;-64
2023/07/08 14:42:58;;;;;;;;;;;35.60;54.10;;;;;;5069361;28;19935;-65
2023/07/08 14:45:31;;;;;;;;;;;35.70;53.80;;;;;;5065848;28;19935;-65
2023/07/08 14:48:07;;;;;;;;;;;35.70;54.40;;;;;;5064370;28;19936;-64
2023/07/08 14:50:39;;;;;;;;;;;35.70;54.40;;;;;;5063026;28;19925;-64